sensor_id;sensor_type;location;lat;lon;timestamp;P1;durP1;ratioP1;P2;durP2;ratioP2
16965;SDS011;8599;47.852;12.070;2024-03-22T00:01:03;18.73;;;9.97;;
16965;SDS011;8599;47.852;12.070;2024-03-22T00:03:31;18.33;;;9.60;;
16965;SDS011;8599;47.852;12.070;2024-03-22T00:05:57;20.70;;;9.87;;
16965;SDS011;8599;47.852;12.070;2024-03-22T00:08:24;16.97;;;9.63;;
16965;SDS011;8599;47.852;12.070;2024-03-22T00:10:50;13.80;;;9.07;;
16965;SDS011;8599;47.852;12.070;2024-03-22T00:13:16;13.87;;;9.27;;
16965;SDS011;8599;47.852;12.070;2024-03-22T00:15:43;11.97;;;8.60;;
16965;SDS011;8599;47.852;12.070;2024-03-22T00:18:10;14.03;;;8.37;;
16965;SDS011;8599;47.852;12.070;2024-03-22T00:20:37;12.03;;;8.03;;
16965;SDS011;8599;47.852;12.070;2024-03-22T00:23:04;11.93;;;7.80;;
16965;SDS011;8599;47.852;12.070;2024-03-22T00:25:31;12.20;;;8.47;;
16965;SDS011;8599;47.852;12.070;2024-03-22T00:27:57;13.50;;;8.20;;
16965;SDS011;8599;47.852;12.070;2024-03-22T00:30:23;15.03;;;8.50;;
16965;SDS011;8599;47.852;12.070;2024-03-22T00:32:50;18.53;;;9.10;;
16965;SDS011;8599;47.852;12.070;2024-03-22T00:35:16;13.43;;;8.97;;
16965;SDS011;8599;47.852;12.070;2024-03-22T00:37:44;14.60;;;8.77;;
16965;SDS011;8599;47.852;12.070;2024-03-22T00:40:11;13.83;;;8.60;;
16965;SDS011;8599;47.852;12.070;2024-03-22T00:42:38;11.77;;;8.60;;
16965;SDS011;8599;47.852;12.070;2024-03-22T00:45:04;15.27;;;9.33;;
16965;SDS011;8599;47.852;12.070;2024-03-22T00:47:32;15.20;;;8.30;;
16965;SDS011;8599;47.852;12.070;2024-03-22T00:49:58;12.37;;;7.97;;
16965;SDS011;8599;47.852;12.070;2024-03-22T00:52:26;12.87;;;8.13;;
16965;SDS011;8599;47.852;12.070;2024-03-22T00:54:54;9.87;;;7.27;;
16965;SDS011;8599;47.852;12.070;2024-03-22T00:57:20;15.00;;;8.67;;
16965;SDS011;8599;47.852;12.070;2024-03-22T00:59:46;14.27;;;7.83;;
16965;SDS011;8599;47.852;12.070;2024-03-22T01:02:13;12.77;;;8.37;;
16965;SDS011;8599;47.852;12.070;2024-03-22T01:04:39;11.67;;;8.97;;
16965;SDS011;8599;47.852;12.070;2024-03-22T01:07:06;10.03;;;8.20;;
16965;SDS011;8599;47.852;12.070;2024-03-22T01:09:31;10.77;;;7.67;;
16965;SDS011;8599;47.852;12.070;2024-03-22T01:12:00;15.90;;;8.63;;
16965;SDS011;8599;47.852;12.070;2024-03-22T01:14:25;15.60;;;8.30;;
16965;SDS011;8599;47.852;12.070;2024-03-22T01:16:52;12.70;;;8.17;;
16965;SDS011;8599;47.852;12.070;2024-03-22T01:19:20;13.23;;;8.43;;
16965;SDS011;8599;47.852;12.070;2024-03-22T01:21:47;10.13;;;7.63;;
16965;SDS011;8599;47.852;12.070;2024-03-22T01:24:13;13.37;;;8.37;;
16965;SDS011;8599;47.852;12.070;2024-03-22T01:26:40;15.33;;;8.67;;
16965;SDS011;8599;47.852;12.070;2024-03-22T01:29:08;10.40;;;7.67;;
16965;SDS011;8599;47.852;12.070;2024-03-22T01:31:34;12.47;;;7.70;;
16965;SDS011;8599;47.852;12.070;2024-03-22T01:34:00;13.63;;;8.10;;
16965;SDS011;8599;47.852;12.070;2024-03-22T01:36:27;14.57;;;8.33;;
16965;SDS011;8599;47.852;12.070;2024-03-22T01:38:53;12.80;;;8.53;;
16965;SDS011;8599;47.852;12.070;2024-03-22T01:41:20;16.47;;;10.10;;
16965;SDS011;8599;47.852;12.070;2024-03-22T01:43:45;13.67;;;8.80;;
16965;SDS011;8599;47.852;12.070;2024-03-22T01:46:13;16.40;;;10.53;;
16965;SDS011;8599;47.852;12.070;2024-03-22T01:48:39;13.57;;;9.53;;
16965;SDS011;8599;47.852;12.070;2024-03-22T01:51:06;13.90;;;9.07;;
16965;SDS011;8599;47.852;12.070;2024-03-22T01:53:33;15.13;;;8.87;;
16965;SDS011;8599;47.852;12.070;2024-03-22T01:56:01;14.33;;;9.30;;
16965;SDS011;8599;47.852;12.070;2024-03-22T01:58:28;18.83;;;7.97;;
16965;SDS011;8599;47.852;12.070;2024-03-22T02:00:54;12.10;;;8.20;;
16965;SDS011;8599;47.852;12.070;2024-03-22T02:03:22;13.17;;;8.97;;
16965;SDS011;8599;47.852;12.070;2024-03-22T02:05:48;14.17;;;9.10;;
16965;SDS011;8599;47.852;12.070;2024-03-22T02:08:15;14.37;;;8.57;;
16965;SDS011;8599;47.852;12.070;2024-03-22T02:10:41;13.37;;;9.03;;
16965;SDS011;8599;47.852;12.070;2024-03-22T02:13:09;14.73;;;9.60;;
16965;SDS011;8599;47.852;12.070;2024-03-22T02:15:35;13.63;;;9.33;;
16965;SDS011;8599;47.852;12.070;2024-03-22T02:18:01;14.53;;;8.93;;
16965;SDS011;8599;47.852;12.070;2024-03-22T02:20:29;16.00;;;10.00;;
16965;SDS011;8599;47.852;12.070;2024-03-22T02:22:55;18.60;;;10.33;;
16965;SDS011;8599;47.852;12.070;2024-03-22T02:25:23;18.80;;;11.47;;
16965;SDS011;8599;47.852;12.070;2024-03-22T02:27:49;17.43;;;11.00;;
16965;SDS011;8599;47.852;12.070;2024-03-22T02:30:15;15.17;;;8.97;;
16965;SDS011;8599;47.852;12.070;2024-03-22T02:32:42;20.70;;;10.30;;
16965;SDS011;8599;47.852;12.070;2024-03-22T02:35:08;15.73;;;9.23;;
16965;SDS011;8599;47.852;12.070;2024-03-22T02:37:35;15.17;;;10.17;;
16965;SDS011;8599;47.852;12.070;2024-03-22T02:40:01;14.23;;;9.27;;
16965;SDS011;8599;47.852;12.070;2024-03-22T02:42:29;14.20;;;9.03;;
16965;SDS011;8599;47.852;12.070;2024-03-22T02:44:55;16.37;;;9.63;;
16965;SDS011;8599;47.852;12.070;2024-03-22T02:47:22;10.50;;;7.77;;
16965;SDS011;8599;47.852;12.070;2024-03-22T02:49:48;16.07;;;9.60;;
16965;SDS011;8599;47.852;12.070;2024-03-22T02:52:14;16.20;;;8.80;;
16965;SDS011;8599;47.852;12.070;2024-03-22T02:54:41;15.50;;;9.70;;
16965;SDS011;8599;47.852;12.070;2024-03-22T02:57:07;12.80;;;9.40;;
16965;SDS011;8599;47.852;12.070;2024-03-22T02:59:35;13.30;;;9.10;;
16965;SDS011;8599;47.852;12.070;2024-03-22T03:02:01;15.03;;;9.47;;
16965;SDS011;8599;47.852;12.070;2024-03-22T03:04:27;15.63;;;9.73;;
16965;SDS011;8599;47.852;12.070;2024-03-22T03:06:55;21.13;;;10.30;;
16965;SDS011;8599;47.852;12.070;2024-03-22T03:09:21;12.53;;;8.90;;
16965;SDS011;8599;47.852;12.070;2024-03-22T03:11:48;15.87;;;8.97;;
16965;SDS011;8599;47.852;12.070;2024-03-22T03:14:14;14.43;;;9.83;;
16965;SDS011;8599;47.852;12.070;2024-03-22T03:16:42;18.73;;;10.70;;
16965;SDS011;8599;47.852;12.070;2024-03-22T03:19:08;14.70;;;9.70;;
16965;SDS011;8599;47.852;12.070;2024-03-22T03:21:34;14.73;;;9.33;;
16965;SDS011;8599;47.852;12.070;2024-03-22T03:24:00;14.97;;;9.63;;
16965;SDS011;8599;47.852;12.070;2024-03-22T03:26:27;15.33;;;10.20;;
16965;SDS011;8599;47.852;12.070;2024-03-22T03:28:53;13.30;;;9.03;;
16965;SDS011;8599;47.852;12.070;2024-03-22T03:31:20;15.23;;;9.50;;
16965;SDS011;8599;47.852;12.070;2024-03-22T03:33:47;16.23;;;9.60;;
16965;SDS011;8599;47.852;12.070;2024-03-22T03:36:14;15.13;;;9.50;;
16965;SDS011;8599;47.852;12.070;2024-03-22T03:38:40;14.53;;;9.60;;
16965;SDS011;8599;47.852;12.070;2024-03-22T03:41:06;13.90;;;9.50;;
16965;SDS011;8599;47.852;12.070;2024-03-22T03:43:32;17.70;;;10.87;;
16965;SDS011;8599;47.852;12.070;2024-03-22T03:45:59;18.37;;;10.03;;
16965;SDS011;8599;47.852;12.070;2024-03-22T03:48:25;14.40;;;9.83;;
16965;SDS011;8599;47.852;12.070;2024-03-22T03:50:53;17.50;;;10.00;;
16965;SDS011;8599;47.852;12.070;2024-03-22T03:53:20;17.90;;;9.67;;
16965;SDS011;8599;47.852;12.070;2024-03-22T03:55:47;17.87;;;9.63;;
16965;SDS011;8599;47.852;12.070;2024-03-22T03:58:12;16.80;;;9.53;;
16965;SDS011;8599;47.852;12.070;2024-03-22T04:00:39;17.20;;;10.30;;
16965;SDS011;8599;47.852;12.070;2024-03-22T04:03:05;16.00;;;10.47;;
16965;SDS011;8599;47.852;12.070;2024-03-22T04:05:32;16.13;;;9.20;;
16965;SDS011;8599;47.852;12.070;2024-03-22T04:07:59;18.73;;;9.67;;
16965;SDS011;8599;47.852;12.070;2024-03-22T04:10:26;14.20;;;9.40;;
16965;SDS011;8599;47.852;12.070;2024-03-22T04:12:52;16.23;;;10.10;;
16965;SDS011;8599;47.852;12.070;2024-03-22T04:15:18;15.77;;;10.73;;
16965;SDS011;8599;47.852;12.070;2024-03-22T04:17:44;14.57;;;9.73;;
16965;SDS011;8599;47.852;12.070;2024-03-22T04:20:11;20.07;;;9.93;;
16965;SDS011;8599;47.852;12.070;2024-03-22T04:22:37;16.63;;;10.23;;
16965;SDS011;8599;47.852;12.070;2024-03-22T04:25:06;21.50;;;11.00;;
16965;SDS011;8599;47.852;12.070;2024-03-22T04:27:35;16.43;;;10.43;;
16965;SDS011;8599;47.852;12.070;2024-03-22T04:30:02;17.57;;;10.97;;
16965;SDS011;8599;47.852;12.070;2024-03-22T04:32:28;13.70;;;9.33;;
16965;SDS011;8599;47.852;12.070;2024-03-22T04:34:55;15.17;;;9.80;;
16965;SDS011;8599;47.852;12.070;2024-03-22T04:37:21;18.00;;;10.60;;
16965;SDS011;8599;47.852;12.070;2024-03-22T04:39:48;15.33;;;9.57;;
16965;SDS011;8599;47.852;12.070;2024-03-22T04:42:17;12.87;;;9.07;;
16965;SDS011;8599;47.852;12.070;2024-03-22T04:44:44;13.97;;;8.90;;
16965;SDS011;8599;47.852;12.070;2024-03-22T04:47:11;15.77;;;8.93;;
16965;SDS011;8599;47.852;12.070;2024-03-22T04:49:37;12.77;;;7.83;;
16965;SDS011;8599;47.852;12.070;2024-03-22T04:52:04;10.23;;;7.90;;
16965;SDS011;8599;47.852;12.070;2024-03-22T04:54:30;17.27;;;8.90;;
16965;SDS011;8599;47.852;12.070;2024-03-22T04:56:57;14.27;;;8.70;;
16965;SDS011;8599;47.852;12.070;2024-03-22T04:59:24;12.10;;;8.23;;
16965;SDS011;8599;47.852;12.070;2024-03-22T05:01:51;15.03;;;9.53;;
16965;SDS011;8599;47.852;12.070;2024-03-22T05:04:16;14.20;;;9.10;;
16965;SDS011;8599;47.852;12.070;2024-03-22T05:06:43;17.03;;;9.23;;
16965;SDS011;8599;47.852;12.070;2024-03-22T05:09:09;12.77;;;8.83;;
16965;SDS011;8599;47.852;12.070;2024-03-22T05:11:36;15.17;;;8.90;;
16965;SDS011;8599;47.852;12.070;2024-03-22T05:14:02;16.10;;;9.90;;
16965;SDS011;8599;47.852;12.070;2024-03-22T05:16:30;13.93;;;9.37;;
16965;SDS011;8599;47.852;12.070;2024-03-22T05:18:56;11.67;;;8.60;;
16965;SDS011;8599;47.852;12.070;2024-03-22T05:21:22;16.17;;;8.93;;
16965;SDS011;8599;47.852;12.070;2024-03-22T05:23:48;13.63;;;8.80;;
16965;SDS011;8599;47.852;12.070;2024-03-22T05:26:15;13.37;;;8.70;;
16965;SDS011;8599;47.852;12.070;2024-03-22T05:28:41;14.27;;;9.17;;
16965;SDS011;8599;47.852;12.070;2024-03-22T05:31:08;14.57;;;8.90;;
16965;SDS011;8599;47.852;12.070;2024-03-22T05:33:35;13.90;;;9.40;;
16965;SDS011;8599;47.852;12.070;2024-03-22T05:36:02;13.97;;;8.47;;
16965;SDS011;8599;47.852;12.070;2024-03-22T05:38:28;17.03;;;9.83;;
16965;SDS011;8599;47.852;12.070;2024-03-22T05:40:55;16.83;;;9.70;;
16965;SDS011;8599;47.852;12.070;2024-03-22T05:43:20;15.27;;;9.20;;
16965;SDS011;8599;47.852;12.070;2024-03-22T05:45:47;12.30;;;9.03;;
16965;SDS011;8599;47.852;12.070;2024-03-22T05:48:13;14.90;;;9.63;;
16965;SDS011;8599;47.852;12.070;2024-03-22T05:50:41;13.40;;;8.93;;
16965;SDS011;8599;47.852;12.070;2024-03-22T05:53:07;13.77;;;9.03;;
16965;SDS011;8599;47.852;12.070;2024-03-22T05:55:34;14.07;;;9.50;;
16965;SDS011;8599;47.852;12.070;2024-03-22T05:58:00;14.43;;;9.67;;
16965;SDS011;8599;47.852;12.070;2024-03-22T06:00:26;16.30;;;10.33;;
16965;SDS011;8599;47.852;12.070;2024-03-22T06:02:52;15.43;;;10.07;;
16965;SDS011;8599;47.852;12.070;2024-03-22T06:05:19;18.43;;;10.00;;
16965;SDS011;8599;47.852;12.070;2024-03-22T06:07:46;15.30;;;9.60;;
16965;SDS011;8599;47.852;12.070;2024-03-22T06:10:13;16.97;;;9.17;;
16965;SDS011;8599;47.852;12.070;2024-03-22T06:12:39;19.30;;;10.77;;
16965;SDS011;8599;47.852;12.070;2024-03-22T06:15:06;14.77;;;9.57;;
16965;SDS011;8599;47.852;12.070;2024-03-22T06:17:32;20.40;;;10.27;;
16965;SDS011;8599;47.852;12.070;2024-03-22T06:19:59;17.77;;;10.73;;
16965;SDS011;8599;47.852;12.070;2024-03-22T06:22:25;15.10;;;10.47;;
16965;SDS011;8599;47.852;12.070;2024-03-22T06:24:53;20.80;;;11.73;;
16965;SDS011;8599;47.852;12.070;2024-03-22T06:27:19;15.93;;;10.10;;
16965;SDS011;8599;47.852;12.070;2024-03-22T06:29:46;21.63;;;11.50;;
16965;SDS011;8599;47.852;12.070;2024-03-22T06:32:11;15.33;;;9.93;;
16965;SDS011;8599;47.852;12.070;2024-03-22T06:34:38;14.20;;;9.63;;
16965;SDS011;8599;47.852;12.070;2024-03-22T06:37:04;20.40;;;10.50;;
16965;SDS011;8599;47.852;12.070;2024-03-22T06:39:31;21.97;;;12.07;;
16965;SDS011;8599;47.852;12.070;2024-03-22T06:41:58;15.33;;;9.93;;
16965;SDS011;8599;47.852;12.070;2024-03-22T06:44:25;13.70;;;9.33;;
16965;SDS011;8599;47.852;12.070;2024-03-22T06:46:50;13.13;;;8.97;;
16965;SDS011;8599;47.852;12.070;2024-03-22T06:49:17;13.30;;;9.10;;
16965;SDS011;8599;47.852;12.070;2024-03-22T06:51:43;20.87;;;9.47;;
16965;SDS011;8599;47.852;12.070;2024-03-22T06:54:10;15.20;;;10.00;;
16965;SDS011;8599;47.852;12.070;2024-03-22T06:56:36;16.13;;;10.30;;
16965;SDS011;8599;47.852;12.070;2024-03-22T06:59:04;16.70;;;9.63;;
16965;SDS011;8599;47.852;12.070;2024-03-22T07:01:29;16.60;;;9.40;;
16965;SDS011;8599;47.852;12.070;2024-03-22T07:03:56;14.50;;;8.93;;
16965;SDS011;8599;47.852;12.070;2024-03-22T07:06:22;12.20;;;8.97;;
16965;SDS011;8599;47.852;12.070;2024-03-22T07:08:49;15.13;;;9.00;;
16965;SDS011;8599;47.852;12.070;2024-03-22T07:11:16;17.17;;;9.33;;
16965;SDS011;8599;47.852;12.070;2024-03-22T07:13:42;16.30;;;8.23;;
16965;SDS011;8599;47.852;12.070;2024-03-22T07:16:10;14.90;;;9.33;;
16965;SDS011;8599;47.852;12.070;2024-03-22T07:18:36;11.27;;;8.50;;
16965;SDS011;8599;47.852;12.070;2024-03-22T07:21:03;11.23;;;7.93;;
16965;SDS011;8599;47.852;12.070;2024-03-22T07:23:29;12.13;;;7.80;;
16965;SDS011;8599;47.852;12.070;2024-03-22T07:25:56;17.90;;;8.47;;
16965;SDS011;8599;47.852;12.070;2024-03-22T07:28:22;13.30;;;7.93;;
16965;SDS011;8599;47.852;12.070;2024-03-22T07:30:48;11.03;;;7.70;;
16965;SDS011;8599;47.852;12.070;2024-03-22T07:33:16;11.23;;;7.73;;
16965;SDS011;8599;47.852;12.070;2024-03-22T07:35:43;13.27;;;8.37;;
16965;SDS011;8599;47.852;12.070;2024-03-22T07:38:09;11.83;;;7.77;;
16965;SDS011;8599;47.852;12.070;2024-03-22T07:40:36;8.37;;;6.73;;
16965;SDS011;8599;47.852;12.070;2024-03-22T07:43:02;10.47;;;7.33;;
16965;SDS011;8599;47.852;12.070;2024-03-22T07:45:31;10.27;;;7.10;;
16965;SDS011;8599;47.852;12.070;2024-03-22T07:47:57;10.57;;;6.80;;
16965;SDS011;8599;47.852;12.070;2024-03-22T07:50:25;15.60;;;8.70;;
16965;SDS011;8599;47.852;12.070;2024-03-22T07:52:51;14.10;;;8.30;;
16965;SDS011;8599;47.852;12.070;2024-03-22T07:55:18;15.27;;;8.43;;
16965;SDS011;8599;47.852;12.070;2024-03-22T07:57:44;17.17;;;8.20;;
16965;SDS011;8599;47.852;12.070;2024-03-22T08:00:11;14.83;;;6.73;;
16965;SDS011;8599;47.852;12.070;2024-03-22T08:02:37;7.70;;;6.13;;
16965;SDS011;8599;47.852;12.070;2024-03-22T08:05:04;11.33;;;6.30;;
16965;SDS011;8599;47.852;12.070;2024-03-22T08:07:32;10.90;;;6.00;;
16965;SDS011;8599;47.852;12.070;2024-03-22T08:09:59;15.90;;;8.27;;
16965;SDS011;8599;47.852;12.070;2024-03-22T08:12:27;15.00;;;8.20;;
16965;SDS011;8599;47.852;12.070;2024-03-22T08:14:53;14.87;;;8.23;;
16965;SDS011;8599;47.852;12.070;2024-03-22T08:17:20;15.53;;;7.50;;
16965;SDS011;8599;47.852;12.070;2024-03-22T08:19:47;11.40;;;7.03;;
16965;SDS011;8599;47.852;12.070;2024-03-22T08:22:13;6.77;;;5.27;;
16965;SDS011;8599;47.852;12.070;2024-03-22T08:24:41;12.37;;;4.83;;
16965;SDS011;8599;47.852;12.070;2024-03-22T08:27:07;9.23;;;6.07;;
16965;SDS011;8599;47.852;12.070;2024-03-22T08:29:34;7.73;;;4.73;;
16965;SDS011;8599;47.852;12.070;2024-03-22T08:32:00;8.87;;;5.00;;
16965;SDS011;8599;47.852;12.070;2024-03-22T08:34:29;8.00;;;5.23;;
16965;SDS011;8599;47.852;12.070;2024-03-22T08:36:55;10.80;;;5.10;;
16965;SDS011;8599;47.852;12.070;2024-03-22T08:39:22;8.50;;;4.60;;
16965;SDS011;8599;47.852;12.070;2024-03-22T08:41:50;4.83;;;4.13;;
16965;SDS011;8599;47.852;12.070;2024-03-22T08:44:17;5.63;;;4.63;;
16965;SDS011;8599;47.852;12.070;2024-03-22T08:46:43;7.10;;;4.07;;
16965;SDS011;8599;47.852;12.070;2024-03-22T08:49:10;5.60;;;3.90;;
16965;SDS011;8599;47.852;12.070;2024-03-22T08:51:37;8.93;;;4.30;;
16965;SDS011;8599;47.852;12.070;2024-03-22T08:54:04;9.27;;;4.60;;
16965;SDS011;8599;47.852;12.070;2024-03-22T08:56:30;6.53;;;4.30;;
16965;SDS011;8599;47.852;12.070;2024-03-22T08:58:58;11.97;;;5.90;;
16965;SDS011;8599;47.852;12.070;2024-03-22T09:01:24;8.73;;;6.17;;
16965;SDS011;8599;47.852;12.070;2024-03-22T09:03:51;8.63;;;5.17;;
16965;SDS011;8599;47.852;12.070;2024-03-22T09:06:18;8.27;;;4.97;;
16965;SDS011;8599;47.852;12.070;2024-03-22T09:08:45;7.77;;;5.23;;
16965;SDS011;8599;47.852;12.070;2024-03-22T09:11:11;5.37;;;4.20;;
16965;SDS011;8599;47.852;12.070;2024-03-22T09:13:37;9.33;;;4.97;;
16965;SDS011;8599;47.852;12.070;2024-03-22T09:16:05;8.43;;;5.33;;
16965;SDS011;8599;47.852;12.070;2024-03-22T09:18:32;9.33;;;4.57;;
16965;SDS011;8599;47.852;12.070;2024-03-22T09:20:58;12.57;;;5.00;;
16965;SDS011;8599;47.852;12.070;2024-03-22T09:23:24;6.40;;;4.07;;
16965;SDS011;8599;47.852;12.070;2024-03-22T09:25:50;6.90;;;3.77;;
16965;SDS011;8599;47.852;12.070;2024-03-22T09:28:17;9.27;;;5.40;;
16965;SDS011;8599;47.852;12.070;2024-03-22T09:30:43;4.73;;;3.80;;
16965;SDS011;8599;47.852;12.070;2024-03-22T09:33:11;6.23;;;3.30;;
16965;SDS011;8599;47.852;12.070;2024-03-22T09:35:37;4.40;;;3.50;;
16965;SDS011;8599;47.852;12.070;2024-03-22T09:38:04;6.60;;;3.20;;
16965;SDS011;8599;47.852;12.070;2024-03-22T09:40:32;4.87;;;3.77;;
16965;SDS011;8599;47.852;12.070;2024-03-22T09:43:01;15.30;;;6.97;;
16965;SDS011;8599;47.852;12.070;2024-03-22T09:45:28;3.63;;;3.10;;
16965;SDS011;8599;47.852;12.070;2024-03-22T09:47:55;3.73;;;3.13;;
16965;SDS011;8599;47.852;12.070;2024-03-22T09:50:24;8.47;;;3.10;;
16965;SDS011;8599;47.852;12.070;2024-03-22T09:52:51;7.63;;;3.00;;
16965;SDS011;8599;47.852;12.070;2024-03-22T09:55:18;4.77;;;2.97;;
16965;SDS011;8599;47.852;12.070;2024-03-22T09:57:48;3.50;;;2.80;;
16965;SDS011;8599;47.852;12.070;2024-03-22T10:00:15;2.87;;;2.57;;
16965;SDS011;8599;47.852;12.070;2024-03-22T10:02:45;9.37;;;2.97;;
16965;SDS011;8599;47.852;12.070;2024-03-22T10:05:11;5.20;;;2.90;;
16965;SDS011;8599;47.852;12.070;2024-03-22T10:07:40;6.13;;;2.73;;
16965;SDS011;8599;47.852;12.070;2024-03-22T10:10:06;7.27;;;2.70;;
16965;SDS011;8599;47.852;12.070;2024-03-22T10:12:34;6.63;;;2.80;;
16965;SDS011;8599;47.852;12.070;2024-03-22T10:14:59;3.80;;;2.47;;
16965;SDS011;8599;47.852;12.070;2024-03-22T10:17:26;4.60;;;2.77;;
16965;SDS011;8599;47.852;12.070;2024-03-22T10:19:53;4.10;;;2.73;;
16965;SDS011;8599;47.852;12.070;2024-03-22T10:22:20;4.67;;;2.70;;
16965;SDS011;8599;47.852;12.070;2024-03-22T10:24:47;5.60;;;2.80;;
16965;SDS011;8599;47.852;12.070;2024-03-22T10:27:15;3.03;;;2.73;;
16965;SDS011;8599;47.852;12.070;2024-03-22T10:29:41;5.97;;;2.87;;
16965;SDS011;8599;47.852;12.070;2024-03-22T10:32:08;5.43;;;3.30;;
16965;SDS011;8599;47.852;12.070;2024-03-22T10:34:35;3.13;;;2.70;;
16965;SDS011;8599;47.852;12.070;2024-03-22T10:37:02;8.37;;;3.00;;
16965;SDS011;8599;47.852;12.070;2024-03-22T10:39:29;6.93;;;3.20;;
16965;SDS011;8599;47.852;12.070;2024-03-22T10:41:58;6.00;;;3.23;;
16965;SDS011;8599;47.852;12.070;2024-03-22T10:44:24;3.33;;;3.03;;
16965;SDS011;8599;47.852;12.070;2024-03-22T10:46:51;6.20;;;2.67;;
16965;SDS011;8599;47.852;12.070;2024-03-22T10:49:20;5.67;;;2.70;;
16965;SDS011;8599;47.852;12.070;2024-03-22T10:51:48;5.10;;;3.30;;
16965;SDS011;8599;47.852;12.070;2024-03-22T10:54:18;6.90;;;2.90;;
16965;SDS011;8599;47.852;12.070;2024-03-22T10:56:47;3.20;;;2.90;;
16965;SDS011;8599;47.852;12.070;2024-03-22T10:59:15;4.23;;;2.80;;
16965;SDS011;8599;47.852;12.070;2024-03-22T11:01:45;5.63;;;3.20;;
16965;SDS011;8599;47.852;12.070;2024-03-22T11:04:12;5.67;;;3.27;;
16965;SDS011;8599;47.852;12.070;2024-03-22T11:06:41;6.10;;;3.30;;
16965;SDS011;8599;47.852;12.070;2024-03-22T11:09:17;5.50;;;2.90;;
16965;SDS011;8599;47.852;12.070;2024-03-22T11:11:47;5.70;;;2.80;;
16965;SDS011;8599;47.852;12.070;2024-03-22T11:14:13;4.93;;;2.60;;
16965;SDS011;8599;47.852;12.070;2024-03-22T11:16:43;3.77;;;3.00;;
16965;SDS011;8599;47.852;12.070;2024-03-22T11:19:09;7.17;;;3.13;;
16965;SDS011;8599;47.852;12.070;2024-03-22T11:21:37;3.47;;;2.80;;
16965;SDS011;8599;47.852;12.070;2024-03-22T11:24:03;4.87;;;2.67;;
16965;SDS011;8599;47.852;12.070;2024-03-22T11:26:30;7.30;;;3.73;;
16965;SDS011;8599;47.852;12.070;2024-03-22T11:28:56;5.80;;;3.30;;
16965;SDS011;8599;47.852;12.070;2024-03-22T11:31:23;3.53;;;2.60;;
16965;SDS011;8599;47.852;12.070;2024-03-22T11:33:54;3.60;;;2.67;;
16965;SDS011;8599;47.852;12.070;2024-03-22T11:36:21;4.53;;;2.80;;
16965;SDS011;8599;47.852;12.070;2024-03-22T11:38:47;2.97;;;2.40;;
16965;SDS011;8599;47.852;12.070;2024-03-22T11:41:15;4.60;;;2.53;;
16965;SDS011;8599;47.852;12.070;2024-03-22T11:43:42;5.37;;;2.80;;
16965;SDS011;8599;47.852;12.070;2024-03-22T11:46:09;8.17;;;2.67;;
16965;SDS011;8599;47.852;12.070;2024-03-22T11:48:38;2.87;;;1.70;;
16965;SDS011;8599;47.852;12.070;2024-03-22T11:51:06;3.40;;;1.80;;
16965;SDS011;8599;47.852;12.070;2024-03-22T11:53:33;4.43;;;1.70;;
16965;SDS011;8599;47.852;12.070;2024-03-22T11:55:59;1.97;;;1.70;;
16965;SDS011;8599;47.852;12.070;2024-03-22T11:58:28;3.17;;;1.57;;
16965;SDS011;8599;47.852;12.070;2024-03-22T12:00:55;4.23;;;1.80;;
16965;SDS011;8599;47.852;12.070;2024-03-22T12:03:22;3.03;;;1.30;;
16965;SDS011;8599;47.852;12.070;2024-03-22T12:05:48;3.87;;;1.63;;
16965;SDS011;8599;47.852;12.070;2024-03-22T12:08:17;1.60;;;1.50;;
16965;SDS011;8599;47.852;12.070;2024-03-22T12:10:43;2.13;;;1.50;;
16965;SDS011;8599;47.852;12.070;2024-03-22T12:13:10;4.97;;;1.80;;
16965;SDS011;8599;47.852;12.070;2024-03-22T12:15:36;3.13;;;1.67;;
16965;SDS011;8599;47.852;12.070;2024-03-22T12:18:03;3.97;;;1.77;;
16965;SDS011;8599;47.852;12.070;2024-03-22T12:20:29;5.33;;;1.30;;
16965;SDS011;8599;47.852;12.070;2024-03-22T12:22:55;4.50;;;1.83;;
16965;SDS011;8599;47.852;12.070;2024-03-22T12:25:23;3.80;;;2.07;;
16965;SDS011;8599;47.852;12.070;2024-03-22T12:27:50;2.93;;;1.70;;
16965;SDS011;8599;47.852;12.070;2024-03-22T12:30:16;3.13;;;1.70;;
16965;SDS011;8599;47.852;12.070;2024-03-22T12:32:43;3.80;;;2.03;;
16965;SDS011;8599;47.852;12.070;2024-03-22T12:35:09;4.83;;;1.60;;
16965;SDS011;8599;47.852;12.070;2024-03-22T12:37:36;5.53;;;1.30;;
16965;SDS011;8599;47.852;12.070;2024-03-22T12:40:02;4.90;;;1.50;;
16965;SDS011;8599;47.852;12.070;2024-03-22T12:42:30;1.70;;;1.30;;
16965;SDS011;8599;47.852;12.070;2024-03-22T12:44:57;5.00;;;1.70;;
16965;SDS011;8599;47.852;12.070;2024-03-22T12:47:24;2.73;;;1.50;;
16965;SDS011;8599;47.852;12.070;2024-03-22T12:49:50;1.30;;;1.20;;
16965;SDS011;8599;47.852;12.070;2024-03-22T12:52:17;1.70;;;1.23;;
16965;SDS011;8599;47.852;12.070;2024-03-22T12:54:43;4.37;;;1.63;;
16965;SDS011;8599;47.852;12.070;2024-03-22T12:57:10;6.13;;;1.60;;
16965;SDS011;8599;47.852;12.070;2024-03-22T12:59:37;2.57;;;1.90;;
16965;SDS011;8599;47.852;12.070;2024-03-22T13:02:04;2.03;;;1.40;;
16965;SDS011;8599;47.852;12.070;2024-03-22T13:04:31;2.47;;;1.60;;
16965;SDS011;8599;47.852;12.070;2024-03-22T13:06:57;2.75;;;1.70;;
16965;SDS011;8599;47.852;12.070;2024-03-22T13:09:23;2.80;;;1.90;;
16965;SDS011;8599;47.852;12.070;2024-03-22T13:11:50;8.10;;;1.70;;
16965;SDS011;8599;47.852;12.070;2024-03-22T13:14:16;5.43;;;1.60;;
16965;SDS011;8599;47.852;12.070;2024-03-22T13:16:45;1.92;;;1.40;;
16965;SDS011;8599;47.852;12.070;2024-03-22T13:19:11;2.70;;;1.50;;
16965;SDS011;8599;47.852;12.070;2024-03-22T13:21:40;4.07;;;1.80;;
16965;SDS011;8599;47.852;12.070;2024-03-22T13:24:05;7.57;;;4.03;;
16965;SDS011;8599;47.852;12.070;2024-03-22T13:26:33;2.38;;;1.67;;
16965;SDS011;8599;47.852;12.070;2024-03-22T13:28:58;2.00;;;1.40;;
16965;SDS011;8599;47.852;12.070;2024-03-22T13:31:25;1.73;;;1.50;;
16965;SDS011;8599;47.852;12.070;2024-03-22T13:33:52;2.63;;;1.52;;
16965;SDS011;8599;47.852;12.070;2024-03-22T13:36:19;2.53;;;1.50;;
16965;SDS011;8599;47.852;12.070;2024-03-22T13:38:45;3.15;;;1.50;;
16965;SDS011;8599;47.852;12.070;2024-03-22T13:41:12;7.20;;;1.90;;
16965;SDS011;8599;47.852;12.070;2024-03-22T13:43:38;3.15;;;2.00;;
16965;SDS011;8599;47.852;12.070;2024-03-22T13:46:05;3.58;;;1.60;;
16965;SDS011;8599;47.852;12.070;2024-03-22T13:48:31;3.28;;;1.90;;
16965;SDS011;8599;47.852;12.070;2024-03-22T13:50:59;1.60;;;1.50;;
16965;SDS011;8599;47.852;12.070;2024-03-22T13:53:26;3.53;;;1.63;;
16965;SDS011;8599;47.852;12.070;2024-03-22T13:55:53;3.33;;;1.55;;
16965;SDS011;8599;47.852;12.070;2024-03-22T13:58:19;3.45;;;1.45;;
16965;SDS011;8599;47.852;12.070;2024-03-22T14:00:46;3.53;;;1.98;;
16965;SDS011;8599;47.852;12.070;2024-03-22T14:03:12;3.72;;;1.73;;
16965;SDS011;8599;47.852;12.070;2024-03-22T14:05:39;3.92;;;1.60;;
16965;SDS011;8599;47.852;12.070;2024-03-22T14:08:07;4.40;;;1.60;;
16965;SDS011;8599;47.852;12.070;2024-03-22T14:10:33;2.88;;;1.73;;
16965;SDS011;8599;47.852;12.070;2024-03-22T14:12:59;3.50;;;1.45;;
16965;SDS011;8599;47.852;12.070;2024-03-22T14:15:28;6.00;;;1.70;;
16965;SDS011;8599;47.852;12.070;2024-03-22T14:17:57;4.03;;;1.45;;
16965;SDS011;8599;47.852;12.070;2024-03-22T14:20:24;3.58;;;1.65;;
16965;SDS011;8599;47.852;12.070;2024-03-22T14:22:50;1.85;;;1.52;;
16965;SDS011;8599;47.852;12.070;2024-03-22T14:25:18;3.92;;;1.52;;
16965;SDS011;8599;47.852;12.070;2024-03-22T14:27:44;2.55;;;1.70;;
16965;SDS011;8599;47.852;12.070;2024-03-22T14:30:11;4.30;;;1.60;;
16965;SDS011;8599;47.852;12.070;2024-03-22T14:32:38;2.35;;;1.70;;
16965;SDS011;8599;47.852;12.070;2024-03-22T14:35:06;7.95;;;1.55;;